sensor_id;sensor_type;location;lat;lon;timestamp;P1;durP1;ratioP1;P2;durP2;ratioP2
11263;SDS011;5689;48.798;9.070;2024-01-10T00:00:04;1.60;;;1.60;;
11263;SDS011;5689;48.798;9.070;2024-01-10T00:02:33;1.70;;;1.70;;
11263;SDS011;5689;48.798;9.070;2024-01-10T00:05:01;1.40;;;1.40;;
11263;SDS011;5689;48.798;9.070;2024-01-10T00:07:31;1.43;;;1.43;;
11263;SDS011;5689;48.798;9.070;2024-01-10T00:09:59;1.60;;;1.60;;
11263;SDS011;5689;48.798;9.070;2024-01-10T00:12:29;1.60;;;1.60;;
11263;SDS011;5689;48.798;9.070;2024-01-10T00:15:02;1.50;;;1.50;;
11263;SDS011;5689;48.798;9.070;2024-01-10T00:17:32;1.70;;;1.70;;
11263;SDS011;5689;48.798;9.070;2024-01-10T00:20:00;1.63;;;1.63;;
11263;SDS011;5689;48.798;9.070;2024-01-10T00:22:31;1.40;;;1.40;;
11263;SDS011;5689;48.798;9.070;2024-01-10T00:25:00;1.80;;;1.80;;
11263;SDS011;5689;48.798;9.070;2024-01-10T00:27:28;1.60;;;1.60;;
11263;SDS011;5689;48.798;9.070;2024-01-10T00:29:56;1.60;;;1.60;;
11263;SDS011;5689;48.798;9.070;2024-01-10T00:32:25;1.63;;;1.63;;
11263;SDS011;5689;48.798;9.070;2024-01-10T00:34:53;1.50;;;1.50;;
11263;SDS011;5689;48.798;9.070;2024-01-10T00:37:21;1.70;;;1.70;;
11263;SDS011;5689;48.798;9.070;2024-01-10T00:39:50;1.87;;;1.87;;
11263;SDS011;5689;48.798;9.070;2024-01-10T00:42:19;1.73;;;1.73;;
11263;SDS011;5689;48.798;9.070;2024-01-10T00:44:48;1.40;;;1.40;;
11263;SDS011;5689;48.798;9.070;2024-01-10T00:47:17;1.53;;;1.53;;
11263;SDS011;5689;48.798;9.070;2024-01-10T00:49:45;1.80;;;1.80;;
11263;SDS011;5689;48.798;9.070;2024-01-10T00:52:13;1.77;;;1.77;;
11263;SDS011;5689;48.798;9.070;2024-01-10T00:54:42;1.87;;;1.83;;
11263;SDS011;5689;48.798;9.070;2024-01-10T00:57:13;1.90;;;1.87;;
11263;SDS011;5689;48.798;9.070;2024-01-10T00:59:42;1.57;;;1.57;;
11263;SDS011;5689;48.798;9.070;2024-01-10T01:02:10;1.50;;;1.50;;
11263;SDS011;5689;48.798;9.070;2024-01-10T01:04:38;1.60;;;1.60;;
11263;SDS011;5689;48.798;9.070;2024-01-10T01:07:06;1.43;;;1.43;;
11263;SDS011;5689;48.798;9.070;2024-01-10T01:09:34;1.60;;;1.60;;
11263;SDS011;5689;48.798;9.070;2024-01-10T01:12:03;1.33;;;1.33;;
11263;SDS011;5689;48.798;9.070;2024-01-10T01:14:33;1.40;;;1.40;;
11263;SDS011;5689;48.798;9.070;2024-01-10T01:17:01;1.60;;;1.60;;
11263;SDS011;5689;48.798;9.070;2024-01-10T01:19:29;1.30;;;1.30;;
11263;SDS011;5689;48.798;9.070;2024-01-10T01:21:57;1.40;;;1.40;;
11263;SDS011;5689;48.798;9.070;2024-01-10T01:24:25;1.53;;;1.53;;
11263;SDS011;5689;48.798;9.070;2024-01-10T01:26:53;1.40;;;1.40;;
11263;SDS011;5689;48.798;9.070;2024-01-10T01:29:21;1.40;;;1.40;;
11263;SDS011;5689;48.798;9.070;2024-01-10T01:31:51;1.53;;;1.53;;
11263;SDS011;5689;48.798;9.070;2024-01-10T01:34:20;1.50;;;1.50;;
11263;SDS011;5689;48.798;9.070;2024-01-10T01:36:48;1.33;;;1.33;;
11263;SDS011;5689;48.798;9.070;2024-01-10T01:39:18;1.57;;;1.57;;
11263;SDS011;5689;48.798;9.070;2024-01-10T01:41:46;1.40;;;1.40;;
11263;SDS011;5689;48.798;9.070;2024-01-10T01:44:14;1.30;;;1.30;;
11263;SDS011;5689;48.798;9.070;2024-01-10T01:46:42;1.40;;;1.40;;
11263;SDS011;5689;48.798;9.070;2024-01-10T01:49:11;1.40;;;1.40;;
11263;SDS011;5689;48.798;9.070;2024-01-10T01:51:40;1.30;;;1.30;;
11263;SDS011;5689;48.798;9.070;2024-01-10T01:54:09;1.30;;;1.30;;
11263;SDS011;5689;48.798;9.070;2024-01-10T01:56:38;1.33;;;1.33;;
11263;SDS011;5689;48.798;9.070;2024-01-10T01:59:07;1.37;;;1.37;;
11263;SDS011;5689;48.798;9.070;2024-01-10T02:01:35;1.27;;;1.27;;
11263;SDS011;5689;48.798;9.070;2024-01-10T02:04:04;1.30;;;1.30;;
11263;SDS011;5689;48.798;9.070;2024-01-10T02:06:34;1.33;;;1.33;;
11263;SDS011;5689;48.798;9.070;2024-01-10T02:09:02;1.50;;;1.50;;
11263;SDS011;5689;48.798;9.070;2024-01-10T02:11:31;1.13;;;1.13;;
11263;SDS011;5689;48.798;9.070;2024-01-10T02:13:59;1.17;;;1.17;;
11263;SDS011;5689;48.798;9.070;2024-01-10T02:16:27;1.30;;;1.30;;
11263;SDS011;5689;48.798;9.070;2024-01-10T02:18:56;1.40;;;1.40;;
11263;SDS011;5689;48.798;9.070;2024-01-10T02:21:24;1.40;;;1.40;;
11263;SDS011;5689;48.798;9.070;2024-01-10T02:23:54;1.47;;;1.47;;
11263;SDS011;5689;48.798;9.070;2024-01-10T02:26:23;1.47;;;1.47;;
11263;SDS011;5689;48.798;9.070;2024-01-10T02:28:53;1.40;;;1.40;;
11263;SDS011;5689;48.798;9.070;2024-01-10T02:31:21;1.60;;;1.60;;
11263;SDS011;5689;48.798;9.070;2024-01-10T02:33:49;1.33;;;1.33;;
11263;SDS011;5689;48.798;9.070;2024-01-10T02:36:17;1.40;;;1.40;;
11263;SDS011;5689;48.798;9.070;2024-01-10T02:38:45;1.57;;;1.57;;
11263;SDS011;5689;48.798;9.070;2024-01-10T02:41:14;1.20;;;1.20;;
11263;SDS011;5689;48.798;9.070;2024-01-10T02:43:43;1.30;;;1.30;;
11263;SDS011;5689;48.798;9.070;2024-01-10T02:46:11;1.33;;;1.33;;
11263;SDS011;5689;48.798;9.070;2024-01-10T02:48:39;1.30;;;1.30;;
11263;SDS011;5689;48.798;9.070;2024-01-10T02:51:07;1.30;;;1.30;;
11263;SDS011;5689;48.798;9.070;2024-01-10T02:53:36;1.63;;;1.63;;
11263;SDS011;5689;48.798;9.070;2024-01-10T02:56:04;1.60;;;1.60;;
11263;SDS011;5689;48.798;9.070;2024-01-10T02:58:33;1.87;;;1.87;;
11263;SDS011;5689;48.798;9.070;2024-01-10T03:01:02;1.83;;;1.83;;
11263;SDS011;5689;48.798;9.070;2024-01-10T03:03:31;1.87;;;1.83;;
11263;SDS011;5689;48.798;9.070;2024-01-10T03:05:59;1.33;;;1.33;;
11263;SDS011;5689;48.798;9.070;2024-01-10T03:08:27;1.60;;;1.60;;
11263;SDS011;5689;48.798;9.070;2024-01-10T03:10:55;1.47;;;1.47;;
11263;SDS011;5689;48.798;9.070;2024-01-10T03:13:23;1.50;;;1.50;;
11263;SDS011;5689;48.798;9.070;2024-01-10T03:15:51;1.50;;;1.50;;
11263;SDS011;5689;48.798;9.070;2024-01-10T03:18:21;1.63;;;1.63;;
11263;SDS011;5689;48.798;9.070;2024-01-10T03:20:50;1.50;;;1.50;;
11263;SDS011;5689;48.798;9.070;2024-01-10T03:23:18;1.40;;;1.40;;
11263;SDS011;5689;48.798;9.070;2024-01-10T03:25:47;1.50;;;1.50;;
11263;SDS011;5689;48.798;9.070;2024-01-10T03:28:15;1.30;;;1.30;;
11263;SDS011;5689;48.798;9.070;2024-01-10T03:30:44;1.57;;;1.57;;
11263;SDS011;5689;48.798;9.070;2024-01-10T03:33:12;1.30;;;1.30;;
11263;SDS011;5689;48.798;9.070;2024-01-10T03:35:43;1.73;;;1.73;;
11263;SDS011;5689;48.798;9.070;2024-01-10T03:38:11;1.80;;;1.80;;
11263;SDS011;5689;48.798;9.070;2024-01-10T03:40:42;1.10;;;1.10;;
11263;SDS011;5689;48.798;9.070;2024-01-10T03:43:10;1.23;;;1.23;;
11263;SDS011;5689;48.798;9.070;2024-01-10T03:45:38;1.27;;;1.27;;
11263;SDS011;5689;48.798;9.070;2024-01-10T03:48:07;1.40;;;1.40;;
11263;SDS011;5689;48.798;9.070;2024-01-10T03:50:35;1.33;;;1.33;;
11263;SDS011;5689;48.798;9.070;2024-01-10T03:53:05;1.30;;;1.30;;
11263;SDS011;5689;48.798;9.070;2024-01-10T03:55:33;1.67;;;1.67;;
11263;SDS011;5689;48.798;9.070;2024-01-10T03:58:01;1.53;;;1.53;;
11263;SDS011;5689;48.798;9.070;2024-01-10T04:00:30;1.50;;;1.50;;
11263;SDS011;5689;48.798;9.070;2024-01-10T04:02:58;1.40;;;1.40;;
11263;SDS011;5689;48.798;9.070;2024-01-10T04:05:27;1.50;;;1.50;;
11263;SDS011;5689;48.798;9.070;2024-01-10T04:07:55;1.40;;;1.40;;
11263;SDS011;5689;48.798;9.070;2024-01-10T04:10:25;1.30;;;1.30;;
11263;SDS011;5689;48.798;9.070;2024-01-10T04:12:53;1.40;;;1.40;;
11263;SDS011;5689;48.798;9.070;2024-01-10T04:15:21;1.37;;;1.37;;
11263;SDS011;5689;48.798;9.070;2024-01-10T04:17:50;1.50;;;1.50;;
11263;SDS011;5689;48.798;9.070;2024-01-10T04:20:18;1.10;;;1.10;;
11263;SDS011;5689;48.798;9.070;2024-01-10T04:22:46;1.30;;;1.30;;
11263;SDS011;5689;48.798;9.070;2024-01-10T04:25:14;1.00;;;1.00;;
11263;SDS011;5689;48.798;9.070;2024-01-10T04:27:43;1.20;;;1.20;;
11263;SDS011;5689;48.798;9.070;2024-01-10T04:30:12;1.23;;;1.23;;
11263;SDS011;5689;48.798;9.070;2024-01-10T04:32:40;1.40;;;1.40;;
11263;SDS011;5689;48.798;9.070;2024-01-10T04:35:09;1.20;;;1.20;;
11263;SDS011;5689;48.798;9.070;2024-01-10T04:37:37;1.30;;;1.30;;
11263;SDS011;5689;48.798;9.070;2024-01-10T04:40:07;1.40;;;1.40;;
11263;SDS011;5689;48.798;9.070;2024-01-10T04:42:35;1.30;;;1.30;;
11263;SDS011;5689;48.798;9.070;2024-01-10T04:45:05;1.40;;;1.40;;
11263;SDS011;5689;48.798;9.070;2024-01-10T04:47:34;1.10;;;1.10;;
11263;SDS011;5689;48.798;9.070;2024-01-10T04:50:03;1.30;;;1.30;;
11263;SDS011;5689;48.798;9.070;2024-01-10T04:52:32;1.20;;;1.20;;
11263;SDS011;5689;48.798;9.070;2024-01-10T04:55:00;1.10;;;1.10;;
11263;SDS011;5689;48.798;9.070;2024-01-10T04:57:29;1.50;;;1.50;;
11263;SDS011;5689;48.798;9.070;2024-01-10T04:59:58;1.30;;;1.30;;
11263;SDS011;5689;48.798;9.070;2024-01-10T05:02:27;1.20;;;1.20;;
11263;SDS011;5689;48.798;9.070;2024-01-10T05:04:55;1.20;;;1.20;;
11263;SDS011;5689;48.798;9.070;2024-01-10T05:07:23;1.30;;;1.30;;
11263;SDS011;5689;48.798;9.070;2024-01-10T05:09:52;1.47;;;1.47;;
11263;SDS011;5689;48.798;9.070;2024-01-10T05:12:20;1.27;;;1.27;;
11263;SDS011;5689;48.798;9.070;2024-01-10T05:14:48;1.10;;;1.10;;
11263;SDS011;5689;48.798;9.070;2024-01-10T05:17:16;1.30;;;1.30;;
11263;SDS011;5689;48.798;9.070;2024-01-10T05:19:46;1.50;;;1.50;;
11263;SDS011;5689;48.798;9.070;2024-01-10T05:22:14;1.60;;;1.60;;
11263;SDS011;5689;48.798;9.070;2024-01-10T05:24:42;1.40;;;1.40;;
11263;SDS011;5689;48.798;9.070;2024-01-10T05:27:11;1.43;;;1.43;;
11263;SDS011;5689;48.798;9.070;2024-01-10T05:29:39;1.37;;;1.37;;
11263;SDS011;5689;48.798;9.070;2024-01-10T05:32:07;1.60;;;1.60;;
11263;SDS011;5689;48.798;9.070;2024-01-10T05:34:35;1.50;;;1.50;;
11263;SDS011;5689;48.798;9.070;2024-01-10T05:37:05;1.40;;;1.40;;
11263;SDS011;5689;48.798;9.070;2024-01-10T05:39:33;1.50;;;1.50;;
11263;SDS011;5689;48.798;9.070;2024-01-10T05:42:01;1.60;;;1.60;;
11263;SDS011;5689;48.798;9.070;2024-01-10T05:44:29;1.50;;;1.50;;
11263;SDS011;5689;48.798;9.070;2024-01-10T05:46:58;1.40;;;1.40;;
11263;SDS011;5689;48.798;9.070;2024-01-10T05:49:26;1.60;;;1.60;;
11263;SDS011;5689;48.798;9.070;2024-01-10T05:51:55;1.40;;;1.40;;
11263;SDS011;5689;48.798;9.070;2024-01-10T05:54:25;1.33;;;1.33;;
11263;SDS011;5689;48.798;9.070;2024-01-10T05:56:54;1.40;;;1.40;;
11263;SDS011;5689;48.798;9.070;2024-01-10T05:59:22;1.70;;;1.70;;
11263;SDS011;5689;48.798;9.070;2024-01-10T06:01:53;1.67;;;1.67;;
11263;SDS011;5689;48.798;9.070;2024-01-10T06:04:22;1.50;;;1.50;;
11263;SDS011;5689;48.798;9.070;2024-01-10T06:06:50;1.50;;;1.50;;
11263;SDS011;5689;48.798;9.070;2024-01-10T06:09:18;1.57;;;1.57;;
11263;SDS011;5689;48.798;9.070;2024-01-10T06:11:49;1.40;;;1.40;;
11263;SDS011;5689;48.798;9.070;2024-01-10T06:14:18;1.50;;;1.50;;
11263;SDS011;5689;48.798;9.070;2024-01-10T06:16:46;2.00;;;1.90;;
11263;SDS011;5689;48.798;9.070;2024-01-10T06:19:14;1.70;;;1.70;;
11263;SDS011;5689;48.798;9.070;2024-01-10T06:21:42;1.63;;;1.63;;
11263;SDS011;5689;48.798;9.070;2024-01-10T06:24:10;1.57;;;1.57;;
11263;SDS011;5689;48.798;9.070;2024-01-10T06:26:39;2.00;;;1.90;;
11263;SDS011;5689;48.798;9.070;2024-01-10T06:29:09;1.60;;;1.60;;
11263;SDS011;5689;48.798;9.070;2024-01-10T06:31:37;1.80;;;1.80;;
11263;SDS011;5689;48.798;9.070;2024-01-10T06:34:05;1.70;;;1.70;;
11263;SDS011;5689;48.798;9.070;2024-01-10T06:36:33;1.67;;;1.67;;
11263;SDS011;5689;48.798;9.070;2024-01-10T06:39:02;1.70;;;1.70;;
11263;SDS011;5689;48.798;9.070;2024-01-10T06:41:32;2.10;;;2.00;;
11263;SDS011;5689;48.798;9.070;2024-01-10T06:44:00;2.40;;;2.30;;
11263;SDS011;5689;48.798;9.070;2024-01-10T06:46:32;2.20;;;2.10;;
11263;SDS011;5689;48.798;9.070;2024-01-10T06:49:00;1.77;;;1.77;;
11263;SDS011;5689;48.798;9.070;2024-01-10T06:51:34;2.10;;;2.00;;
11263;SDS011;5689;48.798;9.070;2024-01-10T06:54:03;1.60;;;1.60;;
11263;SDS011;5689;48.798;9.070;2024-01-10T06:56:32;2.10;;;2.00;;
11263;SDS011;5689;48.798;9.070;2024-01-10T06:59:01;2.00;;;1.90;;
11263;SDS011;5689;48.798;9.070;2024-01-10T07:01:30;2.10;;;2.00;;
11263;SDS011;5689;48.798;9.070;2024-01-10T07:03:59;2.00;;;1.90;;
11263;SDS011;5689;48.798;9.070;2024-01-10T07:06:28;2.10;;;2.00;;
11263;SDS011;5689;48.798;9.070;2024-01-10T07:08:56;2.10;;;2.00;;
11263;SDS011;5689;48.798;9.070;2024-01-10T07:11:25;2.00;;;1.90;;
11263;SDS011;5689;48.798;9.070;2024-01-10T07:13:54;2.00;;;1.90;;
11263;SDS011;5689;48.798;9.070;2024-01-10T07:16:22;1.97;;;1.87;;
11263;SDS011;5689;48.798;9.070;2024-01-10T07:18:53;2.20;;;2.10;;
11263;SDS011;5689;48.798;9.070;2024-01-10T07:21:21;1.80;;;1.80;;
11263;SDS011;5689;48.798;9.070;2024-01-10T07:23:52;2.10;;;2.00;;
11263;SDS011;5689;48.798;9.070;2024-01-10T07:26:20;2.07;;;1.97;;
11263;SDS011;5689;48.798;9.070;2024-01-10T07:28:48;2.43;;;2.33;;
11263;SDS011;5689;48.798;9.070;2024-01-10T07:31:16;1.80;;;1.80;;
11263;SDS011;5689;48.798;9.070;2024-01-10T07:33:44;2.20;;;2.10;;
11263;SDS011;5689;48.798;9.070;2024-01-10T07:36:14;2.10;;;2.00;;
11263;SDS011;5689;48.798;9.070;2024-01-10T07:38:42;2.40;;;2.30;;
11263;SDS011;5689;48.798;9.070;2024-01-10T07:41:10;1.57;;;1.57;;
11263;SDS011;5689;48.798;9.070;2024-01-10T07:43:38;2.00;;;1.90;;
11263;SDS011;5689;48.798;9.070;2024-01-10T07:46:07;2.00;;;1.90;;
11263;SDS011;5689;48.798;9.070;2024-01-10T07:48:35;2.10;;;2.00;;
11263;SDS011;5689;48.798;9.070;2024-01-10T07:51:04;1.67;;;1.67;;
11263;SDS011;5689;48.798;9.070;2024-01-10T07:53:33;1.47;;;1.47;;
11263;SDS011;5689;48.798;9.070;2024-01-10T07:56:02;1.83;;;1.83;;
11263;SDS011;5689;48.798;9.070;2024-01-10T07:58:31;1.80;;;1.80;;
11263;SDS011;5689;48.798;9.070;2024-01-10T08:00:59;1.80;;;1.80;;
11263;SDS011;5689;48.798;9.070;2024-01-10T08:03:27;1.87;;;1.83;;
11263;SDS011;5689;48.798;9.070;2024-01-10T08:05:55;1.60;;;1.60;;
11263;SDS011;5689;48.798;9.070;2024-01-10T08:08:23;1.50;;;1.50;;
11263;SDS011;5689;48.798;9.070;2024-01-10T08:10:53;1.60;;;1.60;;
11263;SDS011;5689;48.798;9.070;2024-01-10T08:13:21;1.57;;;1.57;;
11263;SDS011;5689;48.798;9.070;2024-01-10T08:15:50;1.50;;;1.50;;
11263;SDS011;5689;48.798;9.070;2024-01-10T08:18:18;1.37;;;1.37;;
11263;SDS011;5689;48.798;9.070;2024-01-10T08:20:46;1.20;;;1.20;;
11263;SDS011;5689;48.798;9.070;2024-01-10T08:23:15;1.67;;;1.67;;
11263;SDS011;5689;48.798;9.070;2024-01-10T08:25:44;1.40;;;1.40;;
11263;SDS011;5689;48.798;9.070;2024-01-10T08:28:14;1.40;;;1.40;;
11263;SDS011;5689;48.798;9.070;2024-01-10T08:30:42;1.40;;;1.40;;
11263;SDS011;5689;48.798;9.070;2024-01-10T08:33:11;1.40;;;1.40;;
11263;SDS011;5689;48.798;9.070;2024-01-10T08:35:40;1.10;;;1.10;;
11263;SDS011;5689;48.798;9.070;2024-01-10T08:38:09;1.20;;;1.20;;
11263;SDS011;5689;48.798;9.070;2024-01-10T08:40:37;1.20;;;1.20;;
11263;SDS011;5689;48.798;9.070;2024-01-10T08:43:05;1.23;;;1.23;;
11263;SDS011;5689;48.798;9.070;2024-01-10T08:45:35;1.30;;;1.30;;
11263;SDS011;5689;48.798;9.070;2024-01-10T08:48:03;1.30;;;1.30;;
11263;SDS011;5689;48.798;9.070;2024-01-10T08:50:34;1.20;;;1.20;;
11263;SDS011;5689;48.798;9.070;2024-01-10T08:53:03;1.30;;;1.30;;
11263;SDS011;5689;48.798;9.070;2024-01-10T08:55:31;1.20;;;1.20;;
11263;SDS011;5689;48.798;9.070;2024-01-10T08:58:00;1.00;;;1.00;;
11263;SDS011;5689;48.798;9.070;2024-01-10T09:00:29;1.20;;;1.20;;
11263;SDS011;5689;48.798;9.070;2024-01-10T09:02:59;1.30;;;1.30;;
11263;SDS011;5689;48.798;9.070;2024-01-10T09:05:27;1.20;;;1.20;;
11263;SDS011;5689;48.798;9.070;2024-01-10T09:07:56;1.20;;;1.20;;
11263;SDS011;5689;48.798;9.070;2024-01-10T09:10:25;1.30;;;1.30;;
11263;SDS011;5689;48.798;9.070;2024-01-10T09:12:54;1.20;;;1.20;;
11263;SDS011;5689;48.798;9.070;2024-01-10T09:15:23;1.17;;;1.17;;
11263;SDS011;5689;48.798;9.070;2024-01-10T09:17:51;1.20;;;1.20;;
11263;SDS011;5689;48.798;9.070;2024-01-10T09:20:20;1.40;;;1.40;;
11263;SDS011;5689;48.798;9.070;2024-01-10T09:22:51;1.37;;;1.37;;
11263;SDS011;5689;48.798;9.070;2024-01-10T09:25:20;1.20;;;1.20;;
11263;SDS011;5689;48.798;9.070;2024-01-10T09:27:48;1.40;;;1.40;;
11263;SDS011;5689;48.798;9.070;2024-01-10T09:30:16;1.00;;;1.00;;
11263;SDS011;5689;48.798;9.070;2024-01-10T09:32:45;1.30;;;1.30;;
11263;SDS011;5689;48.798;9.070;2024-01-10T09:35:15;1.10;;;1.10;;
11263;SDS011;5689;48.798;9.070;2024-01-10T09:37:45;0.90;;;0.90;;
11263;SDS011;5689;48.798;9.070;2024-01-10T09:40:14;1.00;;;1.00;;
11263;SDS011;5689;48.798;9.070;2024-01-10T09:42:43;1.00;;;1.00;;
11263;SDS011;5689;48.798;9.070;2024-01-10T09:45:12;0.97;;;0.97;;
11263;SDS011;5689;48.798;9.070;2024-01-10T09:47:44;1.30;;;1.30;;
11263;SDS011;5689;48.798;9.070;2024-01-10T09:50:16;1.00;;;1.00;;
11263;SDS011;5689;48.798;9.070;2024-01-10T09:52:48;0.90;;;0.90;;
11263;SDS011;5689;48.798;9.070;2024-01-10T09:55:19;1.10;;;1.10;;
11263;SDS011;5689;48.798;9.070;2024-01-10T09:57:50;1.00;;;1.00;;
11263;SDS011;5689;48.798;9.070;2024-01-10T10:00:19;0.97;;;0.97;;
11263;SDS011;5689;48.798;9.070;2024-01-10T10:02:50;1.00;;;1.00;;
11263;SDS011;5689;48.798;9.070;2024-01-10T10:05:19;1.10;;;1.10;;
11263;SDS011;5689;48.798;9.070;2024-01-10T10:07:51;0.90;;;0.90;;
11263;SDS011;5689;48.798;9.070;2024-01-10T10:10:21;0.90;;;0.90;;
11263;SDS011;5689;48.798;9.070;2024-01-10T10:12:50;0.70;;;0.70;;
11263;SDS011;5689;48.798;9.070;2024-01-10T10:15:19;0.90;;;0.90;;
11263;SDS011;5689;48.798;9.070;2024-01-10T10:17:49;0.80;;;0.80;;
11263;SDS011;5689;48.798;9.070;2024-01-10T10:20:20;0.80;;;0.80;;
11263;SDS011;5689;48.798;9.070;2024-01-10T10:23:00;0.70;;;0.70;;
11263;SDS011;5689;48.798;9.070;2024-01-10T10:25:31;0.70;;;0.70;;
11263;SDS011;5689;48.798;9.070;2024-01-10T10:28:01;0.80;;;0.80;;
11263;SDS011;5689;48.798;9.070;2024-01-10T10:30:31;0.77;;;0.77;;
11263;SDS011;5689;48.798;9.070;2024-01-10T10:33:00;0.60;;;0.60;;
11263;SDS011;5689;48.798;9.070;2024-01-10T10:35:28;0.60;;;0.60;;
11263;SDS011;5689;48.798;9.070;2024-01-10T10:37:58;0.67;;;0.67;;
11263;SDS011;5689;48.798;9.070;2024-01-10T10:40:27;0.57;;;0.57;;
11263;SDS011;5689;48.798;9.070;2024-01-10T10:42:56;0.50;;;0.50;;
11263;SDS011;5689;48.798;9.070;2024-01-10T10:45:24;0.30;;;0.30;;
11263;SDS011;5689;48.798;9.070;2024-01-10T10:47:55;0.30;;;0.30;;
11263;SDS011;5689;48.798;9.070;2024-01-10T10:50:26;0.30;;;0.30;;
11263;SDS011;5689;48.798;9.070;2024-01-10T10:52:56;0.40;;;0.40;;
11263;SDS011;5689;48.798;9.070;2024-01-10T10:55:27;0.30;;;0.30;;
11263;SDS011;5689;48.798;9.070;2024-01-10T10:57:57;0.30;;;0.30;;
11263;SDS011;5689;48.798;9.070;2024-01-10T11:00:29;0.20;;;0.20;;
11263;SDS011;5689;48.798;9.070;2024-01-10T11:02:58;0.30;;;0.30;;
11263;SDS011;5689;48.798;9.070;2024-01-10T11:05:28;0.30;;;0.30;;
11263;SDS011;5689;48.798;9.070;2024-01-10T11:07:57;0.30;;;0.30;;
11263;SDS011;5689;48.798;9.070;2024-01-10T11:10:33;0.35;;;0.35;;
11263;SDS011;5689;48.798;9.070;2024-01-10T11:13:10;0.20;;;0.20;;
11263;SDS011;5689;48.798;9.070;2024-01-10T11:15:56;0.20;;;0.20;;
11263;SDS011;5689;48.798;9.070;2024-01-10T11:18:40;0.30;;;0.30;;
11263;SDS011;5689;48.798;9.070;2024-01-10T11:21:21;0.20;;;0.20;;
11263;SDS011;5689;48.798;9.070;2024-01-10T11:23:54;0.40;;;0.40;;
11263;SDS011;5689;48.798;9.070;2024-01-10T11:26:27;0.40;;;0.40;;
11263;SDS011;5689;48.798;9.070;2024-01-10T11:28:56;0.30;;;0.30;;
11263;SDS011;5689;48.798;9.070;2024-01-10T11:31:28;0.30;;;0.30;;
11263;SDS011;5689;48.798;9.070;2024-01-10T11:33:58;0.20;;;0.20;;
11263;SDS011;5689;48.798;9.070;2024-01-10T11:36:28;0.20;;;0.20;;
11263;SDS011;5689;48.798;9.070;2024-01-10T11:38:58;0.20;;;0.20;;
11263;SDS011;5689;48.798;9.070;2024-01-10T11:41:30;0.35;;;0.35;;
11263;SDS011;5689;48.798;9.070;2024-01-10T11:46:58;0.40;;;0.40;;
11263;SDS011;5689;48.798;9.070;2024-01-10T11:49:27;0.30;;;0.30;;
11263;SDS011;5689;48.798;9.070;2024-01-10T11:51:56;0.53;;;0.53;;
11263;SDS011;5689;48.798;9.070;2024-01-10T11:54:35;0.40;;;0.40;;
11263;SDS011;5689;48.798;9.070;2024-01-10T11:57:08;0.38;;;0.38;;
11263;SDS011;5689;48.798;9.070;2024-01-10T11:59:40;0.30;;;0.30;;
11263;SDS011;5689;48.798;9.070;2024-01-10T12:02:10;0.20;;;0.20;;
11263;SDS011;5689;48.798;9.070;2024-01-10T12:04:40;0.10;;;0.10;;
11263;SDS011;5689;48.798;9.070;2024-01-10T12:07:11;0.20;;;0.20;;
11263;SDS011;5689;48.798;9.070;2024-01-10T12:09:39;0.20;;;0.20;;
11263;SDS011;5689;48.798;9.070;2024-01-10T12:12:09;0.30;;;0.30;;
11263;SDS011;5689;48.798;9.070;2024-01-10T12:14:39;0.40;;;0.40;;
11263;SDS011;5689;48.798;9.070;2024-01-10T12:17:09;0.20;;;0.20;;
11263;SDS011;5689;48.798;9.070;2024-01-10T12:19:37;0.25;;;0.25;;
11263;SDS011;5689;48.798;9.070;2024-01-10T12:22:06;0.30;;;0.30;;
11263;SDS011;5689;48.798;9.070;2024-01-10T12:24:34;0.30;;;0.30;;
11263;SDS011;5689;48.798;9.070;2024-01-10T12:27:12;0.20;;;0.20;;
11263;SDS011;5689;48.798;9.070;2024-01-10T12:29:43;0.25;;;0.25;;
11263;SDS011;5689;48.798;9.070;2024-01-10T12:32:11;0.20;;;0.20;;
11263;SDS011;5689;48.798;9.070;2024-01-10T12:34:39;0.20;;;0.20;;
11263;SDS011;5689;48.798;9.070;2024-01-10T12:37:07;0.30;;;0.30;;
11263;SDS011;5689;48.798;9.070;2024-01-10T12:39:38;0.40;;;0.40;;
11263;SDS011;5689;48.798;9.070;2024-01-10T12:42:06;0.30;;;0.30;;
11263;SDS011;5689;48.798;9.070;2024-01-10T12:44:37;0.30;;;0.30;;
11263;SDS011;5689;48.798;9.070;2024-01-10T12:47:05;0.50;;;0.50;;
11263;SDS011;5689;48.798;9.070;2024-01-10T12:49:33;0.53;;;0.53;;
11263;SDS011;5689;48.798;9.070;2024-01-10T12:52:04;0.60;;;0.60;;
11263;SDS011;5689;48.798;9.070;2024-01-10T12:54:34;0.60;;;0.60;;
11263;SDS011;5689;48.798;9.070;2024-01-10T12:57:02;0.70;;;0.70;;
11263;SDS011;5689;48.798;9.070;2024-01-10T12:59:31;0.60;;;0.60;;
11263;SDS011;5689;48.798;9.070;2024-01-10T13:02:00;0.77;;;0.77;;
11263;SDS011;5689;48.798;9.070;2024-01-10T13:04:28;0.80;;;0.80;;
11263;SDS011;5689;48.798;9.070;2024-01-10T13:06:57;0.70;;;0.70;;
11263;SDS011;5689;48.798;9.070;2024-01-10T13:09:25;0.70;;;0.70;;
11263;SDS011;5689;48.798;9.070;2024-01-10T13:11:53;0.80;;;0.80;;
11263;SDS011;5689;48.798;9.070;2024-01-10T13:14:21;0.80;;;0.80;;
11263;SDS011;5689;48.798;9.070;2024-01-10T13:16:49;0.80;;;0.80;;
11263;SDS011;5689;48.798;9.070;2024-01-10T13:19:20;0.60;;;0.60;;
11263;SDS011;5689;48.798;9.070;2024-01-10T13:21:48;0.60;;;0.60;;
11263;SDS011;5689;48.798;9.070;2024-01-10T13:24:17;0.60;;;0.60;;
11263;SDS011;5689;48.798;9.070;2024-01-10T13:26:45;0.70;;;0.70;;
11263;SDS011;5689;48.798;9.070;2024-01-10T13:29:14;0.80;;;0.80;;
11263;SDS011;5689;48.798;9.070;2024-01-10T13:31:43;0.70;;;0.70;;
11263;SDS011;5689;48.798;9.070;2024-01-10T13:34:11;0.80;;;0.80;;
11263;SDS011;5689;48.798;9.070;2024-01-10T13:36:41;0.77;;;0.77;;
11263;SDS011;5689;48.798;9.070;2024-01-10T13:39:09;0.70;;;0.70;;
11263;SDS011;5689;48.798;9.070;2024-01-10T13:41:41;0.70;;;0.70;;
11263;SDS011;5689;48.798;9.070;2024-01-10T13:44:09;0.60;;;0.60;;
11263;SDS011;5689;48.798;9.070;2024-01-10T13:46:37;0.70;;;0.70;;
11263;SDS011;5689;48.798;9.070;2024-01-10T13:49:06;0.60;;;0.60;;
11263;SDS011;5689;48.798;9.070;2024-01-10T13:51:34;0.60;;;0.60;;
11263;SDS011;5689;48.798;9.070;2024-01-10T13:54:04;0.60;;;0.60;;
11263;SDS011;5689;48.798;9.070;2024-01-10T13:56:32;0.60;;;0.60;;
11263;SDS011;5689;48.798;9.070;2024-01-10T13:59:00;0.60;;;0.60;;
11263;SDS011;5689;48.798;9.070;2024-01-10T14:01:29;0.67;;;0.67;;
11263;SDS011;5689;48.798;9.070;2024-01-10T14:03:57;0.60;;;0.60;;
11263;SDS011;5689;48.798;9.070;2024-01-10T14:06:26;0.50;;;0.50;;
11263;SDS011;5689;48.798;9.070;2024-01-10T14:08:54;0.60;;;0.60;;
11263;SDS011;5689;48.798;9.070;2024-01-10T14:11:25;0.60;;;0.60;;
11263;SDS011;5689;48.798;9.070;2024-01-10T14:13:54;0.70;;;0.70;;
11263;SDS011;5689;48.798;9.070;2024-01-10T14:16:22;0.70;;;0.70;;
11263;SDS011;5689;48.798;9.070;2024-01-10T14:18:50;0.70;;;0.70;;
11263;SDS011;5689;48.798;9.070;2024-01-10T14:21:18;0.70;;;0.70;;
11263;SDS011;5689;48.798;9.070;2024-01-10T14:23:46;0.80;;;0.80;;
11263;SDS011;5689;48.798;9.070;2024-01-10T14:26:15;0.90;;;0.90;;
11263;SDS011;5689;48.798;9.070;2024-01-10T14:28:44;0.90;;;0.90;;
11263;SDS011;5689;48.798;9.070;2024-01-10T14:31:12;0.90;;;0.90;;
11263;SDS011;5689;48.798;9.070;2024-01-10T14:33:43;0.80;;;0.80;;
11263;SDS011;5689;48.798;9.070;2024-01-10T14:36:12;0.90;;;0.90;;
11263;SDS011;5689;48.798;9.070;2024-01-10T14:38:40;1.00;;;1.00;;
11263;SDS011;5689;48.798;9.070;2024-01-10T14:41:08;1.00;;;1.00;;
11263;SDS011;5689;48.798;9.070;2024-01-10T14:43:37;0.90;;;0.90;;
11263;SDS011;5689;48.798;9.070;2024-01-10T14:46:06;0.93;;;0.93;;
11263;SDS011;5689;48.798;9.070;2024-01-10T14:48:34;1.00;;;1.00;;
11263;SDS011;5689;48.798;9.070;2024-01-10T14:51:03;0.90;;;0.90;;
11263;SDS011;5689;48.798;9.070;2024-01-10T14:53:33;0.93;;;0.93;;
11263;SDS011;5689;48.798;9.070;2024-01-10T14:56:02;0.90;;;0.90;;
11263;SDS011;5689;48.798;9.070;2024-01-10T14:58:31;0.90;;;0.90;;
11263;SDS011;5689;48.798;9.070;2024-01-10T15:00:59;0.90;;;0.90;;
11263;SDS011;5689;48.798;9.070;2024-01-10T15:03:29;0.83;;;0.83;;
11263;SDS011;5689;48.798;9.070;2024-01-10T15:05:58;1.00;;;1.00;;
11263;SDS011;5689;48.798;9.070;2024-01-10T15:08:26;0.87;;;0.87;;
11263;SDS011;5689;48.798;9.070;2024-01-10T15:10:54;0.80;;;0.80;;
11263;SDS011;5689;48.798;9.070;2024-01-10T15:13:23;1.00;;;1.00;;